CCA22J WSSS-ZSPD
Flight info
| Callsign | CCA22J |
|---|---|
| Flight time | 5h 2m |
| Altitude | 35000 |
| Route | VMR6A VMR M771 DUBSA/N0497F360 M771 DUDIS/K0920F360 M771 DOSUT/N0495F360 M771 DULOP/N0493F370 M771 DUMOL/N0497F360 J103 BEKOL/K0919S1100 A461 SHL/K0913S1130 G471 EGEDA/K0915S1100 G471 PLT/K0911S1130 A599 ELNEX G204 SHZ W58 BK BK82A |
| Aircraft | B77W/H-SDE1E2E3FGHIJ2J3J4J5M1RWXY/LB1D1 |
Departure
| Time | 2026-05-05 15:18 |
|---|---|
| Airport | Singapore Changi Airport (WSSS) |
Arrival
| Time | 2026-05-05 20:20 |
|---|---|
| Airport | Shanghai Pudong International Airport (ZSPD) |
| Time | Latitude | Longitude | Altitude | Speed | Heading |
|---|---|---|---|---|---|
| 2026-05-05 15:02 | 1.35709 | 103.99492 | 31 ft | 13 kts | 202° |
| 2026-05-05 15:02 | 1.35627 | 103.99459 | 31 ft | 13 kts | 202° |
| 2026-05-05 15:02 | 1.35546 | 103.99424 | 31 ft | 13 kts | 203° |
| 2026-05-05 15:02 | 1.35452 | 103.99384 | 31 ft | 17 kts | 203° |
| 2026-05-05 15:03 | 1.35341 | 103.99338 | 31 ft | 17 kts | 202° |
| 2026-05-05 15:03 | 1.35229 | 103.99290 | 31 ft | 17 kts | 202° |
| 2026-05-05 15:03 | 1.35117 | 103.99244 | 30 ft | 17 kts | 202° |
| 2026-05-05 15:03 | 1.35005 | 103.99198 | 30 ft | 17 kts | 202° |
| 2026-05-05 15:04 | 1.34893 | 103.99151 | 31 ft | 17 kts | 203° |
| 2026-05-05 15:04 | 1.34782 | 103.99103 | 31 ft | 17 kts | 203° |
| 2026-05-05 15:04 | 1.34670 | 103.99056 | 31 ft | 17 kts | 202° |
| 2026-05-05 15:04 | 1.34558 | 103.99010 | 32 ft | 17 kts | 203° |
| 2026-05-05 15:05 | 1.34335 | 103.98914 | 31 ft | 17 kts | 201° |
| 2026-05-05 15:05 | 1.34223 | 103.98869 | 31 ft | 17 kts | 203° |
| 2026-05-05 15:05 | 1.34149 | 103.98838 | 31 ft | 17 kts | 203° |
| 2026-05-05 15:06 | 1.34037 | 103.98791 | 31 ft | 17 kts | 203° |
| 2026-05-05 15:06 | 1.33926 | 103.98744 | 31 ft | 17 kts | 203° |
| 2026-05-05 15:06 | 1.33814 | 103.98697 | 31 ft | 17 kts | 202° |
| 2026-05-05 15:06 | 1.33702 | 103.98651 | 30 ft | 17 kts | 202° |
| 2026-05-05 15:07 | 1.33590 | 103.98604 | 30 ft | 17 kts | 202° |
| 2026-05-05 15:07 | 1.33478 | 103.98557 | 30 ft | 17 kts | 202° |
| 2026-05-05 15:07 | 1.33366 | 103.98510 | 30 ft | 17 kts | 202° |
| 2026-05-05 15:07 | 1.33255 | 103.98464 | 31 ft | 17 kts | 202° |
| 2026-05-05 15:08 | 1.33143 | 103.98418 | 31 ft | 17 kts | 203° |
| 2026-05-05 15:08 | 1.33084 | 103.98392 | 31 ft | 8 kts | 203° |
| 2026-05-05 15:08 | 1.33058 | 103.98381 | 31 ft | 0 kts | 203° |
| 2026-05-05 15:13 | 1.33021 | 103.98366 | 31 ft | 13 kts | 202° |
| 2026-05-05 15:13 | 1.32958 | 103.98379 | 31 ft | 8 kts | 133° |
| 2026-05-05 15:14 | 1.32941 | 103.98406 | 32 ft | 0 kts | 115° |
| 2026-05-05 15:16 | 1.32930 | 103.98433 | 32 ft | 9 kts | 112° |
| 2026-05-05 15:16 | 1.32912 | 103.98494 | 33 ft | 8 kts | 84° |
| 2026-05-05 15:16 | 1.32951 | 103.98528 | 33 ft | 8 kts | 27° |
| 2026-05-05 15:17 | 1.32998 | 103.98549 | 34 ft | 0 kts | 23° |
| 2026-05-05 15:17 | 1.33000 | 103.98550 | 34 ft | 5 kts | 23° |
| 2026-05-05 15:17 | 1.33272 | 103.98665 | 32 ft | 82 kts | 22° |
| 2026-05-05 15:17 | 1.34022 | 103.98981 | 35 ft | 149 kts | 23° |
| 2026-05-05 15:18 | 1.35152 | 103.99459 | 51 ft | 198 kts | 22° |
| 2026-05-05 15:18 | 1.36406 | 103.99971 | 729 ft | 194 kts | 22° |
| 2026-05-05 15:18 | 1.37684 | 104.00498 | 1303 ft | 200 kts | 24° |
| 2026-05-05 15:18 | 1.38975 | 104.01056 | 1899 ft | 209 kts | 24° |
| 2026-05-05 15:19 | 1.40394 | 104.01667 | 2099 ft | 235 kts | 24° |
| 2026-05-05 15:19 | 1.41979 | 104.02341 | 2390 ft | 258 kts | 23° |
| 2026-05-05 15:19 | 1.43654 | 104.03048 | 3055 ft | 265 kts | 23° |
| 2026-05-05 15:19 | 1.45370 | 104.03770 | 3816 ft | 269 kts | 23° |
| 2026-05-05 15:20 | 1.47106 | 104.04499 | 4633 ft | 272 kts | 23° |
| 2026-05-05 15:20 | 1.48921 | 104.05023 | 5255 ft | 276 kts | 1° |
| 2026-05-05 15:20 | 1.50790 | 104.04619 | 5952 ft | 277 kts | 334° |
| 2026-05-05 15:20 | 1.52499 | 104.03705 | 6599 ft | 282 kts | 331° |
| 2026-05-05 15:21 | 1.54234 | 104.02763 | 7276 ft | 285 kts | 331° |
| 2026-05-05 15:21 | 1.55964 | 104.01823 | 7989 ft | 288 kts | 331° |
| 2026-05-05 15:21 | 1.57733 | 104.00861 | 8677 ft | 291 kts | 331° |
| 2026-05-05 15:21 | 1.59526 | 103.99887 | 9372 ft | 295 kts | 331° |
| 2026-05-05 15:22 | 1.61344 | 103.98902 | 10038 ft | 299 kts | 331° |
| 2026-05-05 15:22 | 1.63205 | 103.97894 | 10499 ft | 313 kts | 332° |
| 2026-05-05 15:22 | 1.65194 | 103.96819 | 10662 ft | 337 kts | 332° |
| 2026-05-05 15:22 | 1.67328 | 103.95667 | 10832 ft | 360 kts | 332° |
| 2026-05-05 15:23 | 1.69601 | 103.94440 | 11090 ft | 380 kts | 332° |
| 2026-05-05 15:23 | 1.71956 | 103.93169 | 11649 ft | 390 kts | 332° |
| 2026-05-05 15:23 | 1.74366 | 103.91875 | 12354 ft | 393 kts | 333° |
| 2026-05-05 15:23 | 1.76944 | 103.90961 | 12948 ft | 399 kts | 353° |
| 2026-05-05 15:24 | 1.79701 | 103.90795 | 13567 ft | 400 kts | 359° |
| 2026-05-05 15:24 | 1.82511 | 103.90682 | 14223 ft | 405 kts | 358° |
| 2026-05-05 15:24 | 1.85336 | 103.90543 | 14986 ft | 408 kts | 358° |
| 2026-05-05 15:24 | 1.88182 | 103.90385 | 15690 ft | 411 kts | 358° |
| 2026-05-05 15:25 | 1.91052 | 103.90216 | 16355 ft | 416 kts | 358° |
| 2026-05-05 15:25 | 1.93959 | 103.90038 | 17000 ft | 421 kts | 358° |
| 2026-05-05 15:25 | 1.96894 | 103.89854 | 17636 ft | 425 kts | 358° |
| 2026-05-05 15:25 | 1.99862 | 103.89666 | 18257 ft | 429 kts | 358° |
| 2026-05-05 15:26 | 2.02855 | 103.89476 | 18796 ft | 433 kts | 358° |
| 2026-05-05 15:26 | 2.05873 | 103.89284 | 19373 ft | 436 kts | 358° |
| 2026-05-05 15:26 | 2.08915 | 103.89091 | 19927 ft | 439 kts | 358° |
| 2026-05-05 15:26 | 2.11977 | 103.88898 | 20463 ft | 442 kts | 358° |
| 2026-05-05 15:27 | 2.15059 | 103.88702 | 20997 ft | 446 kts | 358° |
| 2026-05-05 15:27 | 2.18166 | 103.88506 | 21521 ft | 449 kts | 358° |
| 2026-05-05 15:27 | 2.21343 | 103.88305 | 22048 ft | 453 kts | 358° |
| 2026-05-05 15:27 | 2.24494 | 103.88106 | 22554 ft | 456 kts | 358° |
| 2026-05-05 15:28 | 2.27674 | 103.87905 | 23045 ft | 459 kts | 358° |
| 2026-05-05 15:28 | 2.30870 | 103.87702 | 23512 ft | 462 kts | 358° |
| 2026-05-05 15:28 | 2.34090 | 103.87498 | 23898 ft | 466 kts | 358° |
| 2026-05-05 15:28 | 2.37322 | 103.87421 | 24172 ft | 465 kts | 7° |
| 2026-05-05 15:29 | 2.40465 | 103.88172 | 24393 ft | 468 kts | 25° |
| 2026-05-05 15:29 | 2.43255 | 103.89804 | 24740 ft | 463 kts | 36° |
| 2026-05-05 15:29 | 2.45946 | 103.91613 | 25021 ft | 469 kts | 34° |
| 2026-05-05 15:29 | 2.48702 | 103.93379 | 25383 ft | 472 kts | 33° |
| 2026-05-05 15:30 | 2.51492 | 103.95123 | 25787 ft | 474 kts | 33° |
| 2026-05-05 15:30 | 2.54300 | 103.96862 | 26191 ft | 476 kts | 33° |
| 2026-05-05 15:30 | 2.57124 | 103.98607 | 26550 ft | 479 kts | 33° |
| 2026-05-05 15:30 | 2.59964 | 104.00364 | 26888 ft | 482 kts | 33° |
| 2026-05-05 15:31 | 2.62821 | 104.02136 | 27219 ft | 485 kts | 33° |
| 2026-05-05 15:31 | 2.65694 | 104.03921 | 27555 ft | 488 kts | 33° |
| 2026-05-05 15:31 | 2.68582 | 104.05718 | 27889 ft | 490 kts | 33° |
| 2026-05-05 15:31 | 2.71482 | 104.07522 | 28208 ft | 493 kts | 33° |
| 2026-05-05 15:32 | 2.74398 | 104.09337 | 28514 ft | 495 kts | 33° |
| 2026-05-05 15:32 | 2.77329 | 104.11162 | 28793 ft | 498 kts | 33° |
| 2026-05-05 15:32 | 2.80236 | 104.12971 | 29072 ft | 500 kts | 33° |
| 2026-05-05 15:32 | 2.83196 | 104.14813 | 29346 ft | 502 kts | 33° |
| 2026-05-05 15:33 | 2.86171 | 104.16664 | 29613 ft | 504 kts | 33° |
| 2026-05-05 15:33 | 2.89150 | 104.18519 | 29930 ft | 505 kts | 33° |
| 2026-05-05 15:33 | 2.92131 | 104.20374 | 30272 ft | 504 kts | 33° |
| 2026-05-05 15:33 | 2.95102 | 104.22223 | 30665 ft | 502 kts | 33° |
| 2026-05-05 15:34 | 2.98058 | 104.24064 | 31072 ft | 499 kts | 33° |
| 2026-05-05 15:34 | 3.01045 | 104.25924 | 31402 ft | 499 kts | 33° |
| 2026-05-05 15:34 | 3.03994 | 104.27761 | 31699 ft | 500 kts | 33° |
| 2026-05-05 15:34 | 3.06944 | 104.29602 | 32031 ft | 499 kts | 33° |
| 2026-05-05 15:35 | 3.09878 | 104.31454 | 32389 ft | 498 kts | 33° |
| 2026-05-05 15:35 | 3.12805 | 104.33308 | 32719 ft | 498 kts | 33° |
| 2026-05-05 15:35 | 3.15734 | 104.35150 | 33062 ft | 497 kts | 33° |
| 2026-05-05 15:35 | 3.18673 | 104.36973 | 33396 ft | 497 kts | 33° |
| 2026-05-05 15:36 | 3.21608 | 104.38785 | 33729 ft | 496 kts | 32° |
| 2026-05-05 15:36 | 3.24546 | 104.40599 | 34030 ft | 496 kts | 33° |
| 2026-05-05 15:36 | 3.27476 | 104.42410 | 34346 ft | 494 kts | 33° |
| 2026-05-05 15:36 | 3.30395 | 104.44219 | 34698 ft | 492 kts | 33° |
| 2026-05-05 15:37 | 3.33300 | 104.46020 | 34932 ft | 492 kts | 33° |
| 2026-05-05 15:37 | 3.39134 | 104.49642 | 34902 ft | 493 kts | 33° |
| 2026-05-05 15:38 | 3.44946 | 104.53247 | 34902 ft | 490 kts | 33° |
| 2026-05-05 15:38 | 3.50736 | 104.56843 | 34906 ft | 489 kts | 33° |
| 2026-05-05 15:39 | 3.56515 | 104.60435 | 34904 ft | 489 kts | 33° |
| 2026-05-05 15:39 | 3.62289 | 104.64025 | 34902 ft | 489 kts | 33° |
| 2026-05-05 15:40 | 3.68112 | 104.67646 | 34906 ft | 490 kts | 33° |
| 2026-05-05 15:40 | 3.73909 | 104.71252 | 34902 ft | 491 kts | 33° |
| 2026-05-05 15:41 | 3.79715 | 104.74864 | 34907 ft | 492 kts | 33° |
| 2026-05-05 15:41 | 3.85536 | 104.78485 | 34943 ft | 494 kts | 33° |
| 2026-05-05 15:41 | 3.88460 | 104.80305 | 35180 ft | 494 kts | 33° |
| 2026-05-05 15:42 | 3.91370 | 104.82118 | 35545 ft | 491 kts | 33° |
| 2026-05-05 15:42 | 3.94259 | 104.83917 | 35896 ft | 488 kts | 33° |
| 2026-05-05 15:42 | 3.97152 | 104.85719 | 35890 ft | 491 kts | 33° |
| 2026-05-05 15:43 | 4.02932 | 104.89321 | 35895 ft | 487 kts | 33° |
| 2026-05-05 15:43 | 4.08657 | 104.92889 | 35901 ft | 483 kts | 33° |
| 2026-05-05 15:44 | 4.14354 | 104.96441 | 35900 ft | 482 kts | 33° |
| 2026-05-05 15:44 | 4.20045 | 104.99990 | 35903 ft | 482 kts | 33° |
| 2026-05-05 15:45 | 4.24779 | 105.02937 | 35908 ft | 483 kts | 33° |
| 2026-05-05 15:45 | 4.30493 | 105.06489 | 35907 ft | 484 kts | 33° |
| 2026-05-05 15:46 | 4.36228 | 105.10054 | 35906 ft | 486 kts | 33° |
| 2026-05-05 15:46 | 4.41977 | 105.13632 | 35901 ft | 487 kts | 33° |
| 2026-05-05 15:47 | 4.47737 | 105.17217 | 35904 ft | 488 kts | 33° |
| 2026-05-05 15:47 | 4.53511 | 105.20812 | 35905 ft | 489 kts | 33° |
| 2026-05-05 15:48 | 4.59286 | 105.24408 | 35902 ft | 489 kts | 33° |
| 2026-05-05 15:48 | 4.65066 | 105.28007 | 35901 ft | 489 kts | 33° |
| 2026-05-05 15:49 | 4.70840 | 105.31604 | 35903 ft | 489 kts | 33° |
| 2026-05-05 15:49 | 4.76616 | 105.35204 | 35900 ft | 488 kts | 33° |
| 2026-05-05 15:50 | 4.82377 | 105.38801 | 35900 ft | 488 kts | 33° |
| 2026-05-05 15:50 | 4.88077 | 105.42484 | 35905 ft | 487 kts | 34° |
| 2026-05-05 15:51 | 4.93752 | 105.46205 | 35904 ft | 487 kts | 34° |
| 2026-05-05 15:51 | 4.99430 | 105.49917 | 35905 ft | 487 kts | 34° |
| 2026-05-05 15:52 | 5.05115 | 105.53621 | 35902 ft | 487 kts | 34° |
| 2026-05-05 15:52 | 5.10806 | 105.57324 | 35902 ft | 487 kts | 34° |
| 2026-05-05 15:53 | 5.16492 | 105.61026 | 35902 ft | 487 kts | 34° |
| 2026-05-05 15:53 | 5.22139 | 105.64703 | 35896 ft | 487 kts | 34° |
| 2026-05-05 15:54 | 5.27855 | 105.68426 | 35901 ft | 487 kts | 34° |
| 2026-05-05 15:54 | 5.33499 | 105.72103 | 35898 ft | 487 kts | 34° |
| 2026-05-05 15:55 | 5.39180 | 105.75806 | 35897 ft | 487 kts | 34° |
| 2026-05-05 15:55 | 5.44865 | 105.79512 | 35899 ft | 487 kts | 33° |
| 2026-05-05 15:56 | 5.50587 | 105.83242 | 35898 ft | 487 kts | 33° |
| 2026-05-05 15:56 | 5.56226 | 105.86920 | 35896 ft | 486 kts | 33° |
| 2026-05-05 15:57 | 5.61889 | 105.90613 | 35897 ft | 485 kts | 33° |
| 2026-05-05 15:57 | 5.67533 | 105.94296 | 35899 ft | 483 kts | 33° |
| 2026-05-05 15:58 | 5.73207 | 105.97999 | 35898 ft | 483 kts | 33° |
| 2026-05-05 15:58 | 5.78838 | 106.01675 | 35894 ft | 483 kts | 33° |
| 2026-05-05 15:59 | 5.84477 | 106.05357 | 35903 ft | 484 kts | 33° |
| 2026-05-05 15:59 | 5.90089 | 106.09021 | 35906 ft | 484 kts | 33° |
| 2026-05-05 16:00 | 5.95737 | 106.12711 | 35897 ft | 484 kts | 33° |
| 2026-05-05 16:00 | 6.01381 | 106.16398 | 35903 ft | 483 kts | 33° |
| 2026-05-05 16:01 | 6.07017 | 106.20082 | 35902 ft | 483 kts | 33° |
| 2026-05-05 16:01 | 6.12643 | 106.23760 | 35898 ft | 482 kts | 33° |
| 2026-05-05 16:02 | 6.18267 | 106.27437 | 35900 ft | 482 kts | 33° |
| 2026-05-05 16:02 | 6.23897 | 106.31120 | 35896 ft | 483 kts | 33° |
| 2026-05-05 16:03 | 6.29527 | 106.34804 | 35901 ft | 483 kts | 33° |
| 2026-05-05 16:03 | 6.35168 | 106.38496 | 35897 ft | 484 kts | 34° |
| 2026-05-05 16:04 | 6.40818 | 106.42194 | 35897 ft | 485 kts | 34° |
| 2026-05-05 16:04 | 6.46468 | 106.45893 | 35895 ft | 485 kts | 34° |
| 2026-05-05 16:05 | 6.52121 | 106.49596 | 35896 ft | 485 kts | 34° |
| 2026-05-05 16:05 | 6.57770 | 106.53296 | 35895 ft | 484 kts | 34° |
| 2026-05-05 16:06 | 6.63451 | 106.57019 | 35898 ft | 484 kts | 34° |
| 2026-05-05 16:06 | 6.69083 | 106.60711 | 35898 ft | 483 kts | 34° |
| 2026-05-05 16:07 | 6.74713 | 106.64403 | 35897 ft | 483 kts | 34° |
| 2026-05-05 16:07 | 6.80337 | 106.68091 | 35898 ft | 483 kts | 34° |
| 2026-05-05 16:08 | 6.85962 | 106.71782 | 35896 ft | 483 kts | 34° |
| 2026-05-05 16:08 | 6.91586 | 106.75474 | 35894 ft | 483 kts | 34° |
| 2026-05-05 16:09 | 6.97211 | 106.79167 | 35895 ft | 483 kts | 34° |
| 2026-05-05 16:09 | 7.02836 | 106.82861 | 35894 ft | 483 kts | 34° |
| 2026-05-05 16:10 | 7.08461 | 106.86561 | 35892 ft | 483 kts | 34° |
| 2026-05-05 16:10 | 7.14076 | 106.90257 | 35894 ft | 482 kts | 33° |
| 2026-05-05 16:11 | 7.19692 | 106.93955 | 35894 ft | 482 kts | 34° |
| 2026-05-05 16:12 | 7.30917 | 107.01349 | 35896 ft | 482 kts | 34° |
| 2026-05-05 16:13 | 7.44909 | 107.10573 | 35901 ft | 480 kts | 34° |
| 2026-05-05 16:13 | 7.50508 | 107.14265 | 35900 ft | 481 kts | 34° |
| 2026-05-05 16:14 | 7.61756 | 107.21688 | 35898 ft | 482 kts | 34° |
| 2026-05-05 16:15 | 7.72974 | 107.29095 | 35895 ft | 482 kts | 34° |
| 2026-05-05 16:16 | 7.84145 | 107.36476 | 35892 ft | 481 kts | 34° |
| 2026-05-05 16:17 | 7.92552 | 107.42034 | 35891 ft | 482 kts | 34° |
| 2026-05-05 16:18 | 8.01008 | 107.47627 | 35895 ft | 483 kts | 34° |
| 2026-05-05 16:19 | 8.09437 | 107.53205 | 35892 ft | 483 kts | 34° |
| 2026-05-05 16:19 | 8.17861 | 107.58782 | 35887 ft | 482 kts | 34° |
| 2026-05-05 16:20 | 8.29069 | 107.66207 | 35891 ft | 482 kts | 34° |
| 2026-05-05 16:22 | 8.43093 | 107.75505 | 35897 ft | 483 kts | 34° |
| 2026-05-05 16:23 | 8.54341 | 107.82969 | 35887 ft | 484 kts | 34° |
| 2026-05-05 16:23 | 8.62760 | 107.88558 | 35892 ft | 482 kts | 35° |
| 2026-05-05 16:24 | 8.67421 | 107.91654 | 35891 ft | 482 kts | 34° |
| 2026-05-05 16:25 | 8.75819 | 107.97235 | 35892 ft | 482 kts | 34° |
| 2026-05-05 16:25 | 8.84219 | 108.02820 | 35889 ft | 482 kts | 34° |
| 2026-05-05 16:26 | 8.95442 | 108.10288 | 35891 ft | 483 kts | 34° |
| 2026-05-05 16:27 | 9.01053 | 108.14023 | 35890 ft | 483 kts | 34° |
| 2026-05-05 16:27 | 9.06670 | 108.17763 | 35886 ft | 483 kts | 34° |
| 2026-05-05 16:28 | 9.12272 | 108.21495 | 35887 ft | 482 kts | 34° |
| 2026-05-05 16:28 | 9.17904 | 108.25248 | 35886 ft | 481 kts | 34° |
| 2026-05-05 16:29 | 9.23452 | 108.28948 | 35890 ft | 481 kts | 34° |
| 2026-05-05 16:29 | 9.29075 | 108.32699 | 35892 ft | 481 kts | 34° |
| 2026-05-05 16:30 | 9.34664 | 108.36428 | 35892 ft | 481 kts | 34° |
| 2026-05-05 16:30 | 9.40264 | 108.40167 | 35898 ft | 483 kts | 34° |
| 2026-05-05 16:31 | 9.45887 | 108.43922 | 35890 ft | 485 kts | 34° |
| 2026-05-05 16:31 | 9.51518 | 108.47678 | 35897 ft | 485 kts | 34° |
| 2026-05-05 16:32 | 9.57155 | 108.51435 | 35894 ft | 484 kts | 34° |
| 2026-05-05 16:32 | 9.62772 | 108.55182 | 35894 ft | 483 kts | 34° |
| 2026-05-05 16:33 | 9.68338 | 108.58897 | 35890 ft | 482 kts | 34° |
| 2026-05-05 16:33 | 9.73944 | 108.62642 | 35891 ft | 483 kts | 34° |
| 2026-05-05 16:34 | 9.79570 | 108.66402 | 35901 ft | 485 kts | 34° |
| 2026-05-05 16:34 | 9.85216 | 108.70176 | 35898 ft | 488 kts | 33° |
| 2026-05-05 16:35 | 9.90894 | 108.73973 | 35896 ft | 489 kts | 34° |
| 2026-05-05 16:35 | 9.96579 | 108.77777 | 35891 ft | 490 kts | 34° |
| 2026-05-05 16:36 | 10.02264 | 108.81581 | 35893 ft | 489 kts | 33° |
| 2026-05-05 16:36 | 10.07981 | 108.85404 | 35891 ft | 488 kts | 33° |
| 2026-05-05 16:37 | 10.13608 | 108.89169 | 35892 ft | 487 kts | 33° |
| 2026-05-05 16:37 | 10.19255 | 108.92950 | 35894 ft | 486 kts | 34° |
| 2026-05-05 16:38 | 10.24892 | 108.96728 | 35891 ft | 485 kts | 34° |
| 2026-05-05 16:38 | 10.30520 | 109.00500 | 35892 ft | 485 kts | 34° |
| 2026-05-05 16:39 | 10.36154 | 109.04278 | 35893 ft | 485 kts | 33° |
| 2026-05-05 16:39 | 10.41787 | 109.08057 | 35894 ft | 486 kts | 33° |
| 2026-05-05 16:40 | 10.47430 | 109.11844 | 35893 ft | 486 kts | 33° |
| 2026-05-05 16:40 | 10.53070 | 109.15631 | 35896 ft | 486 kts | 33° |
| 2026-05-05 16:41 | 10.58717 | 109.19425 | 35893 ft | 486 kts | 33° |
| 2026-05-05 16:41 | 10.64356 | 109.23216 | 35894 ft | 486 kts | 33° |
| 2026-05-05 16:42 | 10.69992 | 109.27005 | 35912 ft | 486 kts | 33° |
| 2026-05-05 16:42 | 10.75629 | 109.30797 | 35898 ft | 486 kts | 33° |
| 2026-05-05 16:43 | 10.81272 | 109.34595 | 35896 ft | 486 kts | 33° |
| 2026-05-05 16:43 | 10.86912 | 109.38392 | 35898 ft | 486 kts | 33° |
| 2026-05-05 16:44 | 10.92557 | 109.42195 | 35898 ft | 487 kts | 33° |
| 2026-05-05 16:44 | 10.98203 | 109.46000 | 35898 ft | 487 kts | 33° |
| 2026-05-05 16:45 | 11.03851 | 109.49810 | 35893 ft | 487 kts | 33° |
| 2026-05-05 16:45 | 11.09498 | 109.53619 | 35899 ft | 487 kts | 33° |
| 2026-05-05 16:46 | 11.15121 | 109.57372 | 35895 ft | 487 kts | 32° |
| 2026-05-05 16:46 | 11.20813 | 109.61105 | 35894 ft | 486 kts | 32° |
| 2026-05-05 16:47 | 11.26497 | 109.64834 | 35894 ft | 486 kts | 32° |
| 2026-05-05 16:47 | 11.32180 | 109.68574 | 35894 ft | 486 kts | 32° |
| 2026-05-05 16:48 | 11.37858 | 109.72318 | 35900 ft | 486 kts | 32° |
| 2026-05-05 16:48 | 11.43530 | 109.76061 | 35903 ft | 486 kts | 32° |
| 2026-05-05 16:49 | 11.49205 | 109.79807 | 35900 ft | 486 kts | 32° |
| 2026-05-05 16:49 | 11.54878 | 109.83551 | 35902 ft | 486 kts | 32° |
| 2026-05-05 16:50 | 11.60553 | 109.87302 | 35899 ft | 486 kts | 32° |
| 2026-05-05 16:50 | 11.66224 | 109.91052 | 35898 ft | 486 kts | 32° |
| 2026-05-05 16:51 | 11.71907 | 109.94809 | 35891 ft | 487 kts | 32° |
| 2026-05-05 16:51 | 11.77599 | 109.98576 | 35903 ft | 488 kts | 32° |
| 2026-05-05 16:52 | 11.83305 | 110.02353 | 35903 ft | 489 kts | 32° |
| 2026-05-05 16:52 | 11.89019 | 110.06138 | 35902 ft | 490 kts | 32° |
| 2026-05-05 16:53 | 11.94747 | 110.09934 | 35899 ft | 491 kts | 32° |
| 2026-05-05 16:53 | 12.00475 | 110.13732 | 35903 ft | 491 kts | 31° |
| 2026-05-05 16:54 | 12.06217 | 110.17539 | 35892 ft | 493 kts | 32° |
| 2026-05-05 16:54 | 12.11971 | 110.21360 | 35901 ft | 494 kts | 32° |
| 2026-05-05 16:55 | 12.17741 | 110.25192 | 35899 ft | 495 kts | 32° |
| 2026-05-05 16:55 | 12.23520 | 110.29032 | 35896 ft | 496 kts | 31° |
| 2026-05-05 16:56 | 12.29308 | 110.32879 | 35899 ft | 496 kts | 32° |
| 2026-05-05 16:56 | 12.35091 | 110.36728 | 35901 ft | 496 kts | 31° |
| 2026-05-05 16:57 | 12.40842 | 110.40630 | 35899 ft | 496 kts | 33° |
| 2026-05-05 16:57 | 12.46533 | 110.44629 | 35898 ft | 496 kts | 33° |
| 2026-05-05 16:58 | 12.52213 | 110.48622 | 35898 ft | 495 kts | 33° |
| 2026-05-05 16:58 | 12.57901 | 110.52600 | 35895 ft | 495 kts | 33° |
| 2026-05-05 16:59 | 12.63584 | 110.56571 | 35895 ft | 494 kts | 33° |
| 2026-05-05 16:59 | 12.69260 | 110.60541 | 35895 ft | 494 kts | 32° |
| 2026-05-05 17:00 | 12.74937 | 110.64514 | 35898 ft | 494 kts | 32° |
| 2026-05-05 17:00 | 12.80618 | 110.68487 | 35899 ft | 495 kts | 32° |
| 2026-05-05 17:01 | 12.86303 | 110.72465 | 35900 ft | 495 kts | 32° |
| 2026-05-05 17:01 | 12.91990 | 110.76449 | 35895 ft | 495 kts | 32° |
| 2026-05-05 17:02 | 12.97679 | 110.80436 | 35899 ft | 496 kts | 32° |
| 2026-05-05 17:02 | 13.03375 | 110.84431 | 35899 ft | 496 kts | 32° |
| 2026-05-05 17:03 | 13.09072 | 110.88429 | 35897 ft | 496 kts | 32° |
| 2026-05-05 17:03 | 13.14765 | 110.92426 | 35896 ft | 496 kts | 32° |
| 2026-05-05 17:04 | 13.20465 | 110.96431 | 35896 ft | 496 kts | 32° |
| 2026-05-05 17:04 | 13.26160 | 111.00434 | 35897 ft | 496 kts | 32° |
| 2026-05-05 17:05 | 13.31853 | 111.04438 | 35898 ft | 496 kts | 32° |
| 2026-05-05 17:05 | 13.37545 | 111.08444 | 35894 ft | 496 kts | 32° |
| 2026-05-05 17:06 | 13.42272 | 111.11773 | 35897 ft | 496 kts | 32° |
| 2026-05-05 17:06 | 13.47955 | 111.15777 | 35897 ft | 495 kts | 32° |
| 2026-05-05 17:07 | 13.53639 | 111.19783 | 35894 ft | 495 kts | 32° |
| 2026-05-05 17:07 | 13.59312 | 111.23785 | 35897 ft | 495 kts | 32° |
| 2026-05-05 17:08 | 13.64986 | 111.27789 | 35888 ft | 495 kts | 32° |
| 2026-05-05 17:08 | 13.70658 | 111.31795 | 35901 ft | 495 kts | 32° |
| 2026-05-05 17:09 | 13.76339 | 111.35809 | 35902 ft | 495 kts | 32° |
| 2026-05-05 17:09 | 13.82022 | 111.39827 | 35900 ft | 496 kts | 32° |
| 2026-05-05 17:10 | 13.87707 | 111.43850 | 35891 ft | 496 kts | 32° |
| 2026-05-05 17:10 | 13.93392 | 111.47876 | 35889 ft | 496 kts | 32° |
| 2026-05-05 17:11 | 13.99082 | 111.51904 | 35892 ft | 496 kts | 32° |
| 2026-05-05 17:11 | 14.04772 | 111.55904 | 35894 ft | 495 kts | 32° |
| 2026-05-05 17:12 | 14.10454 | 111.59891 | 35893 ft | 494 kts | 32° |
| 2026-05-05 17:12 | 14.16125 | 111.63877 | 35895 ft | 493 kts | 32° |
| 2026-05-05 17:13 | 14.21790 | 111.67865 | 35896 ft | 493 kts | 32° |
| 2026-05-05 17:13 | 14.27443 | 111.71847 | 35894 ft | 492 kts | 32° |
| 2026-05-05 17:14 | 14.33099 | 111.75834 | 35893 ft | 492 kts | 32° |
| 2026-05-05 17:14 | 14.38752 | 111.79821 | 35895 ft | 493 kts | 32° |
| 2026-05-05 17:15 | 14.44413 | 111.83817 | 35897 ft | 493 kts | 32° |
| 2026-05-05 17:15 | 14.50079 | 111.87819 | 35893 ft | 494 kts | 32° |
| 2026-05-05 17:16 | 14.55747 | 111.91824 | 35891 ft | 494 kts | 32° |
| 2026-05-05 17:16 | 14.61415 | 111.95851 | 35899 ft | 495 kts | 32° |
| 2026-05-05 17:17 | 14.67081 | 111.99901 | 35893 ft | 495 kts | 32° |
| 2026-05-05 17:17 | 14.72752 | 112.03937 | 35896 ft | 495 kts | 32° |
| 2026-05-05 17:18 | 14.78449 | 112.07935 | 35896 ft | 495 kts | 32° |
| 2026-05-05 17:18 | 14.84112 | 112.11900 | 35896 ft | 495 kts | 32° |
| 2026-05-05 17:19 | 14.89810 | 112.15899 | 35899 ft | 495 kts | 32° |
| 2026-05-05 17:19 | 14.95504 | 112.19904 | 35896 ft | 495 kts | 32° |
| 2026-05-05 17:20 | 15.01194 | 112.23911 | 35893 ft | 495 kts | 32° |
| 2026-05-05 17:20 | 15.06884 | 112.27920 | 35897 ft | 495 kts | 32° |
| 2026-05-05 17:21 | 15.12571 | 112.31928 | 35896 ft | 495 kts | 32° |
| 2026-05-05 17:22 | 15.21105 | 112.37949 | 35902 ft | 495 kts | 32° |
| 2026-05-05 17:22 | 15.26791 | 112.41964 | 35893 ft | 495 kts | 32° |
| 2026-05-05 17:23 | 15.32469 | 112.45976 | 35896 ft | 494 kts | 32° |
| 2026-05-05 17:23 | 15.38150 | 112.49992 | 35895 ft | 494 kts | 32° |
| 2026-05-05 17:24 | 15.43832 | 112.54013 | 35893 ft | 494 kts | 32° |
| 2026-05-05 17:24 | 15.49510 | 112.58033 | 35895 ft | 494 kts | 32° |
| 2026-05-05 17:25 | 15.55195 | 112.62060 | 35897 ft | 495 kts | 32° |
| 2026-05-05 17:25 | 15.60884 | 112.66093 | 35896 ft | 496 kts | 32° |
| 2026-05-05 17:26 | 15.66583 | 112.70137 | 35894 ft | 496 kts | 32° |
| 2026-05-05 17:26 | 15.72284 | 112.74184 | 35894 ft | 497 kts | 32° |
| 2026-05-05 17:27 | 15.77992 | 112.78239 | 35898 ft | 497 kts | 32° |
| 2026-05-05 17:27 | 15.83703 | 112.82299 | 35896 ft | 497 kts | 32° |
| 2026-05-05 17:28 | 15.89412 | 112.86360 | 35893 ft | 497 kts | 32° |
| 2026-05-05 17:28 | 15.95123 | 112.90426 | 35896 ft | 497 kts | 32° |
| 2026-05-05 17:29 | 16.00829 | 112.94492 | 35895 ft | 497 kts | 32° |
| 2026-05-05 17:29 | 16.06531 | 112.98557 | 35889 ft | 497 kts | 32° |
| 2026-05-05 17:30 | 16.12233 | 113.02625 | 35898 ft | 497 kts | 32° |
| 2026-05-05 17:30 | 16.17928 | 113.06690 | 35894 ft | 497 kts | 32° |
| 2026-05-05 17:31 | 16.23623 | 113.10759 | 35897 ft | 496 kts | 32° |
| 2026-05-05 17:31 | 16.29309 | 113.14825 | 35892 ft | 496 kts | 32° |
| 2026-05-05 17:32 | 16.34994 | 113.18892 | 35893 ft | 495 kts | 32° |
| 2026-05-05 17:32 | 16.40673 | 113.22958 | 35900 ft | 495 kts | 31° |
| 2026-05-05 17:33 | 16.46347 | 113.27024 | 35891 ft | 495 kts | 31° |
| 2026-05-05 17:33 | 16.52016 | 113.31088 | 35895 ft | 495 kts | 31° |
| 2026-05-05 17:34 | 16.57686 | 113.35156 | 35894 ft | 494 kts | 31° |
| 2026-05-05 17:34 | 16.63349 | 113.39223 | 35896 ft | 494 kts | 31° |
| 2026-05-05 17:35 | 16.69015 | 113.43295 | 35900 ft | 494 kts | 32° |
| 2026-05-05 17:35 | 16.74639 | 113.47339 | 35893 ft | 495 kts | 32° |
| 2026-05-05 17:36 | 16.80311 | 113.51421 | 35895 ft | 495 kts | 32° |
| 2026-05-05 17:36 | 16.85981 | 113.55505 | 35893 ft | 495 kts | 32° |
| 2026-05-05 17:37 | 16.91649 | 113.59590 | 35895 ft | 495 kts | 32° |
| 2026-05-05 17:37 | 16.97321 | 113.63682 | 35897 ft | 495 kts | 32° |
| 2026-05-05 17:38 | 17.02992 | 113.67775 | 35898 ft | 496 kts | 32° |
| 2026-05-05 17:38 | 17.08682 | 113.71846 | 35892 ft | 496 kts | 31° |
| 2026-05-05 17:39 | 17.14386 | 113.75892 | 35895 ft | 495 kts | 31° |
| 2026-05-05 17:39 | 17.20085 | 113.79942 | 35892 ft | 495 kts | 31° |
| 2026-05-05 17:40 | 17.25782 | 113.84000 | 35891 ft | 495 kts | 31° |
| 2026-05-05 17:40 | 17.31474 | 113.88062 | 35891 ft | 495 kts | 31° |
| 2026-05-05 17:41 | 17.37165 | 113.92125 | 35890 ft | 495 kts | 31° |
| 2026-05-05 17:41 | 17.42854 | 113.96190 | 35890 ft | 495 kts | 31° |
| 2026-05-05 17:42 | 17.48543 | 114.00258 | 35893 ft | 495 kts | 31° |
| 2026-05-05 17:42 | 17.54231 | 114.04327 | 35893 ft | 495 kts | 31° |
| 2026-05-05 17:43 | 17.59917 | 114.08399 | 35893 ft | 496 kts | 31° |
| 2026-05-05 17:43 | 17.65615 | 114.12482 | 35895 ft | 496 kts | 31° |
| 2026-05-05 17:44 | 17.71317 | 114.16572 | 35895 ft | 497 kts | 31° |
| 2026-05-05 17:44 | 17.77024 | 114.20669 | 35897 ft | 497 kts | 31° |
| 2026-05-05 17:45 | 17.82736 | 114.24772 | 35895 ft | 498 kts | 31° |
| 2026-05-05 17:45 | 17.88454 | 114.28883 | 35892 ft | 498 kts | 31° |
| 2026-05-05 17:46 | 17.94175 | 114.32999 | 35894 ft | 499 kts | 31° |
| 2026-05-05 17:46 | 17.99900 | 114.37122 | 35891 ft | 499 kts | 31° |
| 2026-05-05 17:47 | 18.05629 | 114.41252 | 35893 ft | 499 kts | 31° |
| 2026-05-05 17:47 | 18.11360 | 114.45386 | 35897 ft | 499 kts | 31° |
| 2026-05-05 17:48 | 18.17086 | 114.49520 | 35901 ft | 499 kts | 31° |
| 2026-05-05 17:48 | 18.23088 | 114.52990 | 35889 ft | 488 kts | 12° |
| 2026-05-05 17:49 | 18.29740 | 114.53722 | 36011 ft | 479 kts | 350° |
| 2026-05-05 17:49 | 18.33040 | 114.53274 | 36231 ft | 478 kts | 349° |
| 2026-05-05 17:49 | 18.36331 | 114.52807 | 36563 ft | 477 kts | 349° |
| 2026-05-05 17:49 | 18.39615 | 114.52351 | 36837 ft | 476 kts | 349° |
| 2026-05-05 17:50 | 18.42873 | 114.51912 | 36857 ft | 479 kts | 349° |
| 2026-05-05 17:50 | 18.49460 | 114.51065 | 36882 ft | 475 kts | 350° |
| 2026-05-05 17:51 | 18.55998 | 114.50247 | 36899 ft | 471 kts | 350° |
| 2026-05-05 17:51 | 18.62497 | 114.49432 | 36903 ft | 469 kts | 350° |
| 2026-05-05 17:52 | 18.68980 | 114.48616 | 36900 ft | 469 kts | 350° |
| 2026-05-05 17:52 | 18.74418 | 114.47930 | 36902 ft | 470 kts | 350° |
| 2026-05-05 17:53 | 18.80925 | 114.47109 | 36900 ft | 472 kts | 349° |
| 2026-05-05 17:53 | 18.87447 | 114.46286 | 36903 ft | 473 kts | 349° |
| 2026-05-05 17:54 | 18.93950 | 114.45465 | 36902 ft | 474 kts | 349° |
| 2026-05-05 17:54 | 19.00550 | 114.44632 | 36900 ft | 475 kts | 350° |
| 2026-05-05 17:55 | 19.07064 | 114.44002 | 36746 ft | 471 kts | 352° |
| 2026-05-05 17:55 | 19.10337 | 114.43742 | 36419 ft | 472 kts | 352° |
| 2026-05-05 17:55 | 19.13615 | 114.43483 | 36031 ft | 473 kts | 352° |
| 2026-05-05 17:55 | 19.16890 | 114.43218 | 35913 ft | 472 kts | 352° |
| 2026-05-05 17:56 | 19.20169 | 114.42944 | 35915 ft | 473 kts | 352° |
| 2026-05-05 17:56 | 19.26764 | 114.42375 | 35905 ft | 477 kts | 352° |
| 2026-05-05 17:57 | 19.33376 | 114.41797 | 35896 ft | 477 kts | 352° |
| 2026-05-05 17:57 | 19.39985 | 114.41219 | 35918 ft | 476 kts | 352° |
| 2026-05-05 17:58 | 19.46590 | 114.40642 | 35899 ft | 476 kts | 352° |
| 2026-05-05 17:58 | 19.53184 | 114.40066 | 35906 ft | 475 kts | 352° |
| 2026-05-05 17:59 | 19.59767 | 114.39490 | 35907 ft | 474 kts | 352° |
| 2026-05-05 17:59 | 19.66345 | 114.38914 | 35906 ft | 474 kts | 352° |
| 2026-05-05 18:00 | 19.72871 | 114.38342 | 35917 ft | 474 kts | 352° |
| 2026-05-05 18:00 | 19.79440 | 114.37765 | 35911 ft | 474 kts | 352° |
| 2026-05-05 18:01 | 19.86009 | 114.37189 | 35914 ft | 474 kts | 352° |
| 2026-05-05 18:01 | 19.92578 | 114.36615 | 35912 ft | 474 kts | 352° |
| 2026-05-05 18:02 | 19.99152 | 114.36041 | 35915 ft | 474 kts | 352° |
| 2026-05-05 18:02 | 20.05730 | 114.35466 | 35917 ft | 474 kts | 351° |
| 2026-05-05 18:03 | 20.12310 | 114.34889 | 35910 ft | 475 kts | 351° |
| 2026-05-05 18:03 | 20.18944 | 114.34308 | 35909 ft | 475 kts | 351° |
| 2026-05-05 18:04 | 20.25529 | 114.33730 | 35911 ft | 475 kts | 351° |
| 2026-05-05 18:04 | 20.32118 | 114.33151 | 35913 ft | 475 kts | 351° |
| 2026-05-05 18:05 | 20.38708 | 114.32572 | 35912 ft | 475 kts | 351° |
| 2026-05-05 18:05 | 20.45292 | 114.31993 | 35918 ft | 475 kts | 351° |
| 2026-05-05 18:06 | 20.51880 | 114.31412 | 35921 ft | 475 kts | 351° |
| 2026-05-05 18:06 | 20.58420 | 114.30836 | 35921 ft | 475 kts | 351° |
| 2026-05-05 18:07 | 20.65004 | 114.30255 | 35941 ft | 475 kts | 351° |
| 2026-05-05 18:07 | 20.71587 | 114.29674 | 35929 ft | 475 kts | 351° |
| 2026-05-05 18:08 | 20.78172 | 114.29092 | 35925 ft | 475 kts | 351° |
| 2026-05-05 18:08 | 20.84751 | 114.28512 | 35927 ft | 474 kts | 351° |
| 2026-05-05 18:09 | 20.91333 | 114.27945 | 35926 ft | 474 kts | 351° |
| 2026-05-05 18:09 | 20.97948 | 114.27376 | 35935 ft | 474 kts | 351° |
| 2026-05-05 18:10 | 21.04478 | 114.26811 | 35928 ft | 473 kts | 351° |
| 2026-05-05 18:10 | 21.11038 | 114.26225 | 35935 ft | 473 kts | 351° |
| 2026-05-05 18:11 | 21.17590 | 114.25627 | 35927 ft | 472 kts | 351° |
| 2026-05-05 18:11 | 21.24134 | 114.25032 | 35928 ft | 472 kts | 351° |
| 2026-05-05 18:12 | 21.30680 | 114.24438 | 35941 ft | 472 kts | 350° |
| 2026-05-05 18:12 | 21.37233 | 114.23847 | 35939 ft | 472 kts | 350° |
| 2026-05-05 18:13 | 21.43780 | 114.23261 | 35937 ft | 472 kts | 350° |
| 2026-05-05 18:13 | 21.50328 | 114.22674 | 35940 ft | 472 kts | 350° |
| 2026-05-05 18:14 | 21.56876 | 114.22086 | 35955 ft | 472 kts | 350° |
| 2026-05-05 18:14 | 21.63424 | 114.21496 | 35944 ft | 472 kts | 350° |
| 2026-05-05 18:15 | 21.69970 | 114.20908 | 35947 ft | 472 kts | 350° |
| 2026-05-05 18:15 | 21.76514 | 114.20321 | 35951 ft | 472 kts | 350° |
| 2026-05-05 18:16 | 21.83061 | 114.19734 | 35955 ft | 472 kts | 350° |
| 2026-05-05 18:16 | 21.89596 | 114.19147 | 35953 ft | 471 kts | 349° |
| 2026-05-05 18:17 | 21.96131 | 114.18559 | 35951 ft | 471 kts | 349° |
| 2026-05-05 18:17 | 22.02650 | 114.17972 | 35951 ft | 470 kts | 349° |
| 2026-05-05 18:18 | 22.09162 | 114.17385 | 35952 ft | 469 kts | 349° |
| 2026-05-05 18:18 | 22.15667 | 114.16798 | 35957 ft | 469 kts | 349° |
| 2026-05-05 18:19 | 22.22161 | 114.16211 | 35967 ft | 468 kts | 349° |
| 2026-05-05 18:19 | 22.28646 | 114.15625 | 35961 ft | 467 kts | 349° |
| 2026-05-05 18:20 | 22.35128 | 114.15039 | 35960 ft | 467 kts | 349° |
| 2026-05-05 18:20 | 22.41603 | 114.14452 | 35966 ft | 467 kts | 349° |
| 2026-05-05 18:21 | 22.48074 | 114.13865 | 35987 ft | 467 kts | 349° |
| 2026-05-05 18:21 | 22.54391 | 114.12640 | 35979 ft | 457 kts | 339° |
| 2026-05-05 18:22 | 22.60325 | 114.10311 | 35968 ft | 450 kts | 330° |
| 2026-05-05 18:22 | 22.65967 | 114.07389 | 35974 ft | 450 kts | 329° |
| 2026-05-05 18:23 | 22.71609 | 114.04448 | 35967 ft | 451 kts | 329° |
| 2026-05-05 18:23 | 22.77278 | 114.01529 | 35969 ft | 451 kts | 330° |
| 2026-05-05 18:24 | 22.82954 | 113.98617 | 35976 ft | 452 kts | 330° |
| 2026-05-05 18:24 | 22.88634 | 113.95699 | 35965 ft | 451 kts | 330° |
| 2026-05-05 18:25 | 22.94298 | 113.92766 | 35965 ft | 451 kts | 329° |
| 2026-05-05 18:25 | 22.99941 | 113.89824 | 35970 ft | 450 kts | 329° |
| 2026-05-05 18:26 | 23.05758 | 113.87469 | 35967 ft | 460 kts | 348° |
| 2026-05-05 18:26 | 23.09047 | 113.87523 | 35973 ft | 473 kts | 2° |
| 2026-05-05 18:26 | 23.12238 | 113.88341 | 35995 ft | 484 kts | 12° |
| 2026-05-05 18:26 | 23.15316 | 113.89924 | 35963 ft | 499 kts | 28° |
| 2026-05-05 18:27 | 23.18074 | 113.92250 | 35982 ft | 504 kts | 33° |
| 2026-05-05 18:27 | 23.23447 | 113.97189 | 35977 ft | 506 kts | 33° |
| 2026-05-05 18:28 | 23.31696 | 114.04311 | 35935 ft | 504 kts | 32° |
| 2026-05-05 18:28 | 23.37204 | 114.09017 | 35985 ft | 504 kts | 32° |
| 2026-05-05 18:29 | 23.42721 | 114.13736 | 35986 ft | 505 kts | 32° |
| 2026-05-05 18:29 | 23.48242 | 114.18467 | 35978 ft | 506 kts | 32° |
| 2026-05-05 18:30 | 23.53766 | 114.23211 | 35975 ft | 505 kts | 32° |
| 2026-05-05 18:30 | 23.59280 | 114.27947 | 35970 ft | 505 kts | 32° |
| 2026-05-05 18:31 | 23.64784 | 114.32685 | 35995 ft | 503 kts | 31° |
| 2026-05-05 18:31 | 23.70337 | 114.37306 | 35983 ft | 500 kts | 30° |
| 2026-05-05 18:32 | 23.75916 | 114.41833 | 35979 ft | 499 kts | 30° |
| 2026-05-05 18:32 | 23.81473 | 114.46366 | 35980 ft | 498 kts | 30° |
| 2026-05-05 18:33 | 23.87015 | 114.50913 | 35974 ft | 498 kts | 30° |
| 2026-05-05 18:33 | 23.92553 | 114.55470 | 35988 ft | 498 kts | 30° |
| 2026-05-05 18:34 | 23.98085 | 114.60026 | 35988 ft | 498 kts | 30° |
| 2026-05-05 18:34 | 24.03610 | 114.64582 | 35988 ft | 497 kts | 30° |
| 2026-05-05 18:35 | 24.09128 | 114.69136 | 35991 ft | 496 kts | 30° |
| 2026-05-05 18:35 | 24.14641 | 114.73690 | 36014 ft | 496 kts | 30° |
| 2026-05-05 18:36 | 24.19214 | 114.77473 | 35989 ft | 495 kts | 30° |
| 2026-05-05 18:36 | 24.24722 | 114.81992 | 35989 ft | 492 kts | 27° |
| 2026-05-05 18:37 | 24.30686 | 114.85355 | 35997 ft | 476 kts | 14° |
| 2026-05-05 18:37 | 24.36991 | 114.87250 | 36016 ft | 467 kts | 5° |
| 2026-05-05 18:38 | 24.43357 | 114.88731 | 36004 ft | 468 kts | 6° |
| 2026-05-05 18:38 | 24.49707 | 114.90261 | 36003 ft | 467 kts | 6° |
| 2026-05-05 18:39 | 24.56043 | 114.91825 | 35997 ft | 467 kts | 6° |
| 2026-05-05 18:39 | 24.62380 | 114.93390 | 35998 ft | 466 kts | 6° |
| 2026-05-05 18:40 | 24.68707 | 114.94972 | 36022 ft | 467 kts | 6° |
| 2026-05-05 18:40 | 24.75048 | 114.96560 | 35997 ft | 467 kts | 6° |
| 2026-05-05 18:41 | 24.81390 | 114.98125 | 35990 ft | 467 kts | 6° |
| 2026-05-05 18:41 | 24.87725 | 114.99664 | 35993 ft | 466 kts | 6° |
| 2026-05-05 18:42 | 24.94053 | 115.01204 | 36001 ft | 466 kts | 6° |
| 2026-05-05 18:42 | 25.00380 | 115.02751 | 36001 ft | 466 kts | 6° |
| 2026-05-05 18:43 | 25.06706 | 115.04300 | 35988 ft | 465 kts | 6° |
| 2026-05-05 18:43 | 25.13017 | 115.05847 | 35997 ft | 464 kts | 6° |
| 2026-05-05 18:44 | 25.19323 | 115.07394 | 35986 ft | 464 kts | 6° |
| 2026-05-05 18:44 | 25.25626 | 115.08942 | 35998 ft | 465 kts | 6° |
| 2026-05-05 18:45 | 25.31940 | 115.10243 | 35998 ft | 454 kts | 356° |
| 2026-05-05 18:45 | 25.38087 | 115.09392 | 35992 ft | 442 kts | 340° |
| 2026-05-05 18:46 | 25.43676 | 115.06767 | 35997 ft | 436 kts | 331° |
| 2026-05-05 18:46 | 25.49160 | 115.03859 | 35989 ft | 438 kts | 331° |
| 2026-05-05 18:47 | 25.54685 | 115.00981 | 35972 ft | 440 kts | 332° |
| 2026-05-05 18:47 | 25.60235 | 114.98120 | 35974 ft | 440 kts | 332° |
| 2026-05-05 18:48 | 25.65796 | 114.95255 | 35970 ft | 440 kts | 332° |
| 2026-05-05 18:48 | 25.71350 | 114.92389 | 35976 ft | 440 kts | 332° |
| 2026-05-05 18:49 | 25.77210 | 114.90532 | 35981 ft | 451 kts | 355° |
| 2026-05-05 18:49 | 25.80363 | 114.90949 | 35978 ft | 463 kts | 8° |
| 2026-05-05 18:49 | 25.83445 | 114.92090 | 35990 ft | 472 kts | 17° |
| 2026-05-05 18:50 | 25.86350 | 114.93872 | 35964 ft | 485 kts | 31° |
| 2026-05-05 18:50 | 25.88835 | 114.96455 | 35989 ft | 492 kts | 39° |
| 2026-05-05 18:50 | 25.93449 | 115.02115 | 35985 ft | 495 kts | 41° |
| 2026-05-05 18:51 | 25.98038 | 115.07836 | 35978 ft | 496 kts | 41° |
| 2026-05-05 18:51 | 26.02695 | 115.13474 | 35967 ft | 495 kts | 40° |
| 2026-05-05 18:52 | 26.07390 | 115.19066 | 35980 ft | 494 kts | 40° |
| 2026-05-05 18:52 | 26.12083 | 115.24643 | 35973 ft | 494 kts | 40° |
| 2026-05-05 18:53 | 26.16763 | 115.30221 | 35979 ft | 493 kts | 40° |
| 2026-05-05 18:53 | 26.21438 | 115.35806 | 35984 ft | 493 kts | 40° |
| 2026-05-05 18:54 | 26.26110 | 115.41396 | 35974 ft | 493 kts | 40° |
| 2026-05-05 18:54 | 26.30775 | 115.46990 | 35979 ft | 492 kts | 40° |
| 2026-05-05 18:55 | 26.35430 | 115.52569 | 35980 ft | 491 kts | 40° |
| 2026-05-05 18:55 | 26.40078 | 115.58150 | 35982 ft | 490 kts | 40° |
| 2026-05-05 18:56 | 26.44711 | 115.63710 | 35958 ft | 488 kts | 40° |
| 2026-05-05 18:56 | 26.49314 | 115.69272 | 35998 ft | 487 kts | 40° |
| 2026-05-05 18:57 | 26.53921 | 115.74822 | 35994 ft | 487 kts | 40° |
| 2026-05-05 18:57 | 26.58526 | 115.80377 | 35985 ft | 487 kts | 40° |
| 2026-05-05 18:58 | 26.63120 | 115.85928 | 35984 ft | 486 kts | 40° |
| 2026-05-05 18:58 | 26.67674 | 115.91437 | 36001 ft | 485 kts | 40° |
| 2026-05-05 18:59 | 26.72252 | 115.96986 | 36000 ft | 485 kts | 40° |
| 2026-05-05 18:59 | 26.76819 | 116.02528 | 35993 ft | 484 kts | 40° |
| 2026-05-05 19:00 | 26.81364 | 116.08050 | 35988 ft | 481 kts | 40° |
| 2026-05-05 19:00 | 26.85890 | 116.13555 | 35995 ft | 480 kts | 40° |
| 2026-05-05 19:01 | 26.90401 | 116.19048 | 35978 ft | 479 kts | 40° |
| 2026-05-05 19:01 | 26.94913 | 116.24525 | 36014 ft | 477 kts | 39° |
| 2026-05-05 19:02 | 26.99438 | 116.29967 | 36002 ft | 477 kts | 39° |
| 2026-05-05 19:02 | 27.03958 | 116.35410 | 35992 ft | 477 kts | 39° |
| 2026-05-05 19:03 | 27.08470 | 116.40859 | 35993 ft | 476 kts | 39° |
| 2026-05-05 19:03 | 27.12975 | 116.46312 | 35994 ft | 477 kts | 39° |
| 2026-05-05 19:04 | 27.17485 | 116.51777 | 36009 ft | 477 kts | 39° |
| 2026-05-05 19:04 | 27.21994 | 116.57229 | 36017 ft | 476 kts | 38° |
| 2026-05-05 19:05 | 27.26581 | 116.62575 | 35986 ft | 474 kts | 38° |
| 2026-05-05 19:05 | 27.31167 | 116.67876 | 35986 ft | 472 kts | 38° |
| 2026-05-05 19:06 | 27.35728 | 116.73177 | 35986 ft | 471 kts | 38° |
| 2026-05-05 19:06 | 27.40272 | 116.78484 | 36002 ft | 470 kts | 38° |
| 2026-05-05 19:07 | 27.44800 | 116.83782 | 35992 ft | 469 kts | 38° |
| 2026-05-05 19:07 | 27.49318 | 116.89073 | 36000 ft | 468 kts | 38° |
| 2026-05-05 19:08 | 27.53838 | 116.94355 | 35995 ft | 468 kts | 38° |
| 2026-05-05 19:08 | 27.58382 | 116.99599 | 36012 ft | 468 kts | 37° |
| 2026-05-05 19:09 | 27.62933 | 117.04848 | 35997 ft | 468 kts | 38° |
| 2026-05-05 19:09 | 27.67473 | 117.10105 | 35993 ft | 467 kts | 38° |
| 2026-05-05 19:10 | 27.71993 | 117.15348 | 35998 ft | 466 kts | 38° |
| 2026-05-05 19:10 | 27.76503 | 117.20588 | 36011 ft | 465 kts | 38° |
| 2026-05-05 19:11 | 27.81013 | 117.25845 | 36044 ft | 466 kts | 38° |
| 2026-05-05 19:11 | 27.85533 | 117.31097 | 36001 ft | 466 kts | 38° |
| 2026-05-05 19:12 | 27.90037 | 117.36352 | 35999 ft | 465 kts | 38° |
| 2026-05-05 19:12 | 27.94530 | 117.41589 | 35984 ft | 464 kts | 38° |
| 2026-05-05 19:13 | 27.99007 | 117.46825 | 35975 ft | 462 kts | 38° |
| 2026-05-05 19:13 | 28.03470 | 117.52051 | 36011 ft | 462 kts | 38° |
| 2026-05-05 19:14 | 28.07934 | 117.57278 | 35995 ft | 461 kts | 38° |
| 2026-05-05 19:14 | 28.12395 | 117.62500 | 35992 ft | 461 kts | 38° |
| 2026-05-05 19:15 | 28.16845 | 117.67717 | 35997 ft | 460 kts | 38° |
| 2026-05-05 19:15 | 28.21293 | 117.72942 | 35988 ft | 460 kts | 38° |
| 2026-05-05 19:16 | 28.25738 | 117.78169 | 35996 ft | 460 kts | 38° |
| 2026-05-05 19:16 | 28.30188 | 117.83408 | 35990 ft | 461 kts | 38° |
| 2026-05-05 19:17 | 28.34634 | 117.88652 | 35992 ft | 461 kts | 38° |
| 2026-05-05 19:17 | 28.39078 | 117.93899 | 35980 ft | 461 kts | 38° |
| 2026-05-05 19:18 | 28.42770 | 117.98273 | 35985 ft | 462 kts | 39° |
| 2026-05-05 19:18 | 28.47144 | 118.03623 | 35990 ft | 462 kts | 40° |
| 2026-05-05 19:19 | 28.51494 | 118.09004 | 35999 ft | 462 kts | 40° |
| 2026-05-05 19:19 | 28.55846 | 118.14382 | 35984 ft | 462 kts | 40° |
| 2026-05-05 19:20 | 28.60198 | 118.19752 | 35986 ft | 461 kts | 40° |
| 2026-05-05 19:20 | 28.64545 | 118.25119 | 36003 ft | 461 kts | 40° |
| 2026-05-05 19:21 | 28.68887 | 118.30485 | 35980 ft | 460 kts | 40° |
| 2026-05-05 19:21 | 28.73216 | 118.35843 | 35982 ft | 459 kts | 40° |
| 2026-05-05 19:22 | 28.77536 | 118.41196 | 35999 ft | 459 kts | 40° |
| 2026-05-05 19:22 | 28.81867 | 118.46570 | 35994 ft | 461 kts | 40° |
| 2026-05-05 19:23 | 28.86205 | 118.51962 | 36002 ft | 461 kts | 41° |
| 2026-05-05 19:23 | 28.90535 | 118.57353 | 36003 ft | 460 kts | 40° |
| 2026-05-05 19:24 | 28.94850 | 118.62727 | 35990 ft | 459 kts | 40° |
| 2026-05-05 19:24 | 28.99158 | 118.68102 | 36009 ft | 459 kts | 41° |
| 2026-05-05 19:25 | 29.03476 | 118.73496 | 36007 ft | 461 kts | 41° |
| 2026-05-05 19:25 | 29.07803 | 118.78909 | 36001 ft | 462 kts | 41° |
| 2026-05-05 19:26 | 29.12137 | 118.84339 | 35994 ft | 462 kts | 41° |
| 2026-05-05 19:26 | 29.16459 | 118.89764 | 36001 ft | 461 kts | 41° |
| 2026-05-05 19:27 | 29.20776 | 118.95184 | 35986 ft | 460 kts | 41° |
| 2026-05-05 19:27 | 29.25085 | 119.00611 | 36003 ft | 461 kts | 42° |
| 2026-05-05 19:28 | 29.29394 | 119.06053 | 36005 ft | 462 kts | 42° |
| 2026-05-05 19:28 | 29.33710 | 119.11520 | 36001 ft | 463 kts | 42° |
| 2026-05-05 19:29 | 29.38032 | 119.16994 | 36001 ft | 464 kts | 41° |
| 2026-05-05 19:29 | 29.42370 | 119.22472 | 36002 ft | 464 kts | 42° |
| 2026-05-05 19:30 | 29.46694 | 119.27950 | 36001 ft | 463 kts | 42° |
| 2026-05-05 19:30 | 29.51038 | 119.33455 | 36005 ft | 467 kts | 42° |
| 2026-05-05 19:31 | 29.55403 | 119.38999 | 36004 ft | 469 kts | 42° |
| 2026-05-05 19:31 | 29.59749 | 119.44590 | 35996 ft | 469 kts | 45° |
| 2026-05-05 19:32 | 29.61547 | 119.47752 | 36000 ft | 480 kts | 59° |
| 2026-05-05 19:32 | 29.62704 | 119.51383 | 36033 ft | 489 kts | 69° |
| 2026-05-05 19:32 | 29.63229 | 119.55273 | 36015 ft | 500 kts | 84° |
| 2026-05-05 19:32 | 29.63082 | 119.59285 | 36009 ft | 504 kts | 89° |
| 2026-05-05 19:33 | 29.62716 | 119.67302 | 36014 ft | 501 kts | 86° |
| 2026-05-05 19:33 | 29.62542 | 119.75309 | 36017 ft | 501 kts | 86° |
| 2026-05-05 19:34 | 29.62392 | 119.83321 | 36028 ft | 502 kts | 86° |
| 2026-05-05 19:35 | 29.62125 | 119.95366 | 36016 ft | 503 kts | 87° |
| 2026-05-05 19:35 | 29.61932 | 120.03399 | 36008 ft | 503 kts | 87° |
| 2026-05-05 19:36 | 29.61733 | 120.11442 | 36023 ft | 503 kts | 87° |
| 2026-05-05 19:36 | 29.61536 | 120.19498 | 36025 ft | 505 kts | 88° |
| 2026-05-05 19:37 | 29.61332 | 120.27576 | 36025 ft | 506 kts | 88° |
| 2026-05-05 19:37 | 29.61145 | 120.35672 | 36023 ft | 508 kts | 88° |
| 2026-05-05 19:38 | 29.60958 | 120.43789 | 36020 ft | 509 kts | 89° |
| 2026-05-05 19:38 | 29.60762 | 120.51930 | 36038 ft | 510 kts | 89° |
| 2026-05-05 19:39 | 29.60560 | 120.60090 | 36044 ft | 511 kts | 88° |
| 2026-05-05 19:39 | 29.60456 | 120.64172 | 35885 ft | 513 kts | 88° |
| 2026-05-05 19:39 | 29.60352 | 120.68323 | 35025 ft | 523 kts | 88° |
| 2026-05-05 19:39 | 29.60244 | 120.72476 | 34338 ft | 519 kts | 87° |
| 2026-05-05 19:40 | 29.60213 | 120.76589 | 33730 ft | 507 kts | 81° |
| 2026-05-05 19:40 | 29.60741 | 120.80526 | 33089 ft | 492 kts | 71° |
| 2026-05-05 19:40 | 29.61794 | 120.84211 | 32552 ft | 479 kts | 63° |
| 2026-05-05 19:40 | 29.63234 | 120.87600 | 32048 ft | 465 kts | 54° |
| 2026-05-05 19:41 | 29.64982 | 120.90626 | 31503 ft | 457 kts | 51° |
| 2026-05-05 19:41 | 29.66764 | 120.93636 | 30913 ft | 454 kts | 52° |
| 2026-05-05 19:41 | 29.68524 | 120.96630 | 30366 ft | 451 kts | 52° |
| 2026-05-05 19:41 | 29.70271 | 120.99628 | 29615 ft | 451 kts | 52° |
| 2026-05-05 19:42 | 29.72001 | 121.02626 | 28940 ft | 449 kts | 53° |
| 2026-05-05 19:42 | 29.73711 | 121.05613 | 28363 ft | 444 kts | 53° |
| 2026-05-05 19:42 | 29.75393 | 121.08559 | 27962 ft | 436 kts | 53° |
| 2026-05-05 19:42 | 29.77045 | 121.11453 | 27491 ft | 431 kts | 53° |
| 2026-05-05 19:43 | 29.78688 | 121.14331 | 26872 ft | 429 kts | 53° |
| 2026-05-05 19:43 | 29.80324 | 121.17199 | 26252 ft | 428 kts | 53° |
| 2026-05-05 19:43 | 29.81951 | 121.20052 | 25702 ft | 425 kts | 53° |
| 2026-05-05 19:43 | 29.83567 | 121.22888 | 25190 ft | 422 kts | 54° |
| 2026-05-05 19:44 | 29.85173 | 121.25710 | 24636 ft | 421 kts | 54° |
| 2026-05-05 19:44 | 29.86781 | 121.28535 | 23995 ft | 422 kts | 54° |
| 2026-05-05 19:44 | 29.88393 | 121.31365 | 23426 ft | 419 kts | 53° |
| 2026-05-05 19:44 | 29.90266 | 121.33877 | 22754 ft | 412 kts | 37° |
| 2026-05-05 19:45 | 29.92679 | 121.35556 | 22113 ft | 402 kts | 24° |
| 2026-05-05 19:45 | 29.95165 | 121.37010 | 21537 ft | 400 kts | 25° |
| 2026-05-05 19:45 | 29.97621 | 121.38503 | 21006 ft | 398 kts | 26° |
| 2026-05-05 19:45 | 30.00054 | 121.40010 | 20483 ft | 396 kts | 26° |
| 2026-05-05 19:46 | 30.02470 | 121.41516 | 19979 ft | 393 kts | 26° |
| 2026-05-05 19:46 | 30.04869 | 121.43015 | 19449 ft | 391 kts | 26° |
| 2026-05-05 19:46 | 30.07254 | 121.44508 | 18967 ft | 389 kts | 26° |
| 2026-05-05 19:46 | 30.09630 | 121.45993 | 18449 ft | 388 kts | 25° |
| 2026-05-05 19:47 | 30.12011 | 121.47477 | 17914 ft | 391 kts | 25° |
| 2026-05-05 19:47 | 30.14423 | 121.48986 | 17375 ft | 398 kts | 26° |
| 2026-05-05 19:47 | 30.16872 | 121.50522 | 16845 ft | 403 kts | 26° |
| 2026-05-05 19:47 | 30.19353 | 121.52079 | 16265 ft | 409 kts | 26° |
| 2026-05-05 19:48 | 30.21853 | 121.53647 | 15629 ft | 402 kts | 26° |
| 2026-05-05 19:48 | 30.24245 | 121.55151 | 15116 ft | 381 kts | 26° |
| 2026-05-05 19:48 | 30.26519 | 121.56589 | 14628 ft | 364 kts | 27° |
| 2026-05-05 19:48 | 30.28685 | 121.57989 | 14178 ft | 350 kts | 27° |
| 2026-05-05 19:49 | 30.30791 | 121.59357 | 13743 ft | 345 kts | 27° |
| 2026-05-05 19:49 | 30.32209 | 121.60277 | 13433 ft | 350 kts | 26° |
| 2026-05-05 19:49 | 30.35099 | 121.62146 | 12812 ft | 363 kts | 27° |
| 2026-05-05 19:49 | 30.37322 | 121.63595 | 12344 ft | 371 kts | 27° |
| 2026-05-05 19:50 | 30.39547 | 121.65127 | 11854 ft | 372 kts | 28° |
| 2026-05-05 19:50 | 30.41749 | 121.66688 | 11378 ft | 370 kts | 30° |
| 2026-05-05 19:50 | 30.43933 | 121.68242 | 10914 ft | 367 kts | 29° |
| 2026-05-05 19:50 | 30.46072 | 121.69758 | 10761 ft | 354 kts | 30° |
| 2026-05-05 19:51 | 30.48144 | 121.71224 | 10579 ft | 344 kts | 28° |
| 2026-05-05 19:51 | 30.50157 | 121.72642 | 10424 ft | 334 kts | 28° |
| 2026-05-05 19:51 | 30.52113 | 121.74020 | 10278 ft | 324 kts | 28° |
| 2026-05-05 19:51 | 30.54012 | 121.75355 | 10153 ft | 315 kts | 29° |
| 2026-05-05 19:52 | 30.55858 | 121.76655 | 10017 ft | 306 kts | 30° |
| 2026-05-05 19:52 | 30.57709 | 121.77774 | 9775 ft | 293 kts | 15° |
| 2026-05-05 19:52 | 30.59651 | 121.78341 | 9690 ft | 285 kts | 9° |
| 2026-05-05 19:52 | 30.61582 | 121.78825 | 9576 ft | 283 kts | 10° |
| 2026-05-05 19:53 | 30.63501 | 121.79314 | 9470 ft | 282 kts | 10° |
| 2026-05-05 19:53 | 30.65416 | 121.79810 | 9364 ft | 282 kts | 11° |
| 2026-05-05 19:53 | 30.67326 | 121.80314 | 9254 ft | 281 kts | 11° |
| 2026-05-05 19:53 | 30.69232 | 121.80822 | 9144 ft | 281 kts | 10° |
| 2026-05-05 19:54 | 30.71133 | 121.81331 | 9045 ft | 280 kts | 11° |
| 2026-05-05 19:54 | 30.73034 | 121.81844 | 8943 ft | 280 kts | 11° |
| 2026-05-05 19:54 | 30.74934 | 121.82360 | 8834 ft | 280 kts | 10° |
| 2026-05-05 19:54 | 30.76832 | 121.82874 | 8722 ft | 280 kts | 11° |
| 2026-05-05 19:55 | 30.78731 | 121.83389 | 8623 ft | 280 kts | 12° |
| 2026-05-05 19:55 | 30.80627 | 121.83907 | 8516 ft | 280 kts | 11° |
| 2026-05-05 19:55 | 30.82525 | 121.84426 | 8410 ft | 280 kts | 11° |
| 2026-05-05 19:55 | 30.84422 | 121.84943 | 8303 ft | 280 kts | 12° |
| 2026-05-05 19:56 | 30.86316 | 121.85461 | 8206 ft | 279 kts | 11° |
| 2026-05-05 19:56 | 30.88207 | 121.85977 | 8095 ft | 278 kts | 12° |
| 2026-05-05 19:56 | 30.90091 | 121.86491 | 7994 ft | 278 kts | 12° |
| 2026-05-05 19:56 | 30.91967 | 121.87005 | 7892 ft | 276 kts | 12° |
| 2026-05-05 19:57 | 30.93793 | 121.87641 | 7757 ft | 273 kts | 24° |
| 2026-05-05 19:57 | 30.94928 | 121.88336 | 7718 ft | 272 kts | 29° |
| 2026-05-05 19:57 | 30.97062 | 121.89860 | 7586 ft | 272 kts | 31° |
| 2026-05-05 19:57 | 30.98668 | 121.91020 | 7484 ft | 271 kts | 31° |
| 2026-05-05 19:58 | 31.00280 | 121.92164 | 7384 ft | 271 kts | 31° |
| 2026-05-05 19:58 | 31.01900 | 121.93294 | 7279 ft | 271 kts | 30° |
| 2026-05-05 19:58 | 31.03522 | 121.94414 | 7175 ft | 271 kts | 30° |
| 2026-05-05 19:58 | 31.05144 | 121.95528 | 7070 ft | 271 kts | 30° |
| 2026-05-05 19:59 | 31.06763 | 121.96638 | 6975 ft | 268 kts | 30° |
| 2026-05-05 19:59 | 31.08215 | 121.97912 | 6839 ft | 258 kts | 52° |
| 2026-05-05 19:59 | 31.09097 | 121.99697 | 6894 ft | 256 kts | 62° |
| 2026-05-05 19:59 | 31.09959 | 122.01540 | 6897 ft | 260 kts | 60° |
| 2026-05-05 20:00 | 31.10836 | 122.03380 | 6920 ft | 258 kts | 60° |
| 2026-05-05 20:00 | 31.11704 | 122.05204 | 6913 ft | 258 kts | 60° |
| 2026-05-05 20:00 | 31.12281 | 122.06421 | 6902 ft | 258 kts | 60° |
| 2026-05-05 20:00 | 31.13442 | 122.08869 | 6896 ft | 257 kts | 60° |
| 2026-05-05 20:01 | 31.14027 | 122.10103 | 6893 ft | 257 kts | 61° |
| 2026-05-05 20:01 | 31.14881 | 122.11907 | 6888 ft | 257 kts | 60° |
| 2026-05-05 20:01 | 31.15918 | 122.13569 | 6889 ft | 253 kts | 44° |
| 2026-05-05 20:01 | 31.17243 | 122.14944 | 6895 ft | 257 kts | 40° |
| 2026-05-05 20:02 | 31.18619 | 122.16299 | 6897 ft | 260 kts | 40° |
| 2026-05-05 20:02 | 31.19988 | 122.17679 | 6893 ft | 259 kts | 41° |
| 2026-05-05 20:02 | 31.21340 | 122.19066 | 6886 ft | 258 kts | 41° |
| 2026-05-05 20:02 | 31.22682 | 122.20454 | 6892 ft | 257 kts | 41° |
| 2026-05-05 20:03 | 31.24069 | 122.21753 | 6883 ft | 254 kts | 30° |
| 2026-05-05 20:03 | 31.25651 | 122.22664 | 6892 ft | 254 kts | 23° |
| 2026-05-05 20:03 | 31.27275 | 122.23491 | 6894 ft | 255 kts | 23° |
| 2026-05-05 20:03 | 31.28900 | 122.24339 | 6897 ft | 256 kts | 24° |
| 2026-05-05 20:04 | 31.30525 | 122.25209 | 6900 ft | 258 kts | 24° |
| 2026-05-05 20:04 | 31.32158 | 122.26094 | 6901 ft | 259 kts | 25° |
| 2026-05-05 20:04 | 31.33801 | 122.26956 | 6891 ft | 258 kts | 19° |
| 2026-05-05 20:04 | 31.35547 | 122.27396 | 6897 ft | 257 kts | 7° |
| 2026-05-05 20:05 | 31.37328 | 122.27661 | 6894 ft | 258 kts | 7° |
| 2026-05-05 20:05 | 31.39117 | 122.27935 | 6897 ft | 260 kts | 7° |
| 2026-05-05 20:05 | 31.40906 | 122.28224 | 6895 ft | 259 kts | 6° |
| 2026-05-05 20:05 | 31.42665 | 122.28047 | 6888 ft | 255 kts | 339° |
| 2026-05-05 20:06 | 31.44103 | 122.26874 | 6889 ft | 255 kts | 310° |
| 2026-05-05 20:06 | 31.44923 | 122.25027 | 6714 ft | 259 kts | 284° |
| 2026-05-05 20:06 | 31.45073 | 122.22948 | 6566 ft | 256 kts | 270° |
| 2026-05-05 20:06 | 31.45070 | 122.20855 | 6398 ft | 257 kts | 270° |
| 2026-05-05 20:07 | 31.45059 | 122.18762 | 6230 ft | 256 kts | 269° |
| 2026-05-05 20:07 | 31.45048 | 122.16682 | 6054 ft | 255 kts | 270° |
| 2026-05-05 20:07 | 31.45040 | 122.14615 | 5900 ft | 253 kts | 270° |
| 2026-05-05 20:07 | 31.45033 | 122.12556 | 5749 ft | 252 kts | 270° |
| 2026-05-05 20:08 | 31.45029 | 122.10511 | 5594 ft | 251 kts | 270° |
| 2026-05-05 20:08 | 31.45026 | 122.08473 | 5447 ft | 250 kts | 270° |
| 2026-05-05 20:08 | 31.45023 | 122.06445 | 5299 ft | 249 kts | 270° |
| 2026-05-05 20:08 | 31.45022 | 122.04422 | 5164 ft | 248 kts | 270° |
| 2026-05-05 20:09 | 31.45020 | 122.02400 | 5005 ft | 248 kts | 270° |
| 2026-05-05 20:09 | 31.45019 | 122.00377 | 4855 ft | 248 kts | 270° |
| 2026-05-05 20:09 | 31.45018 | 121.98355 | 4701 ft | 248 kts | 269° |
| 2026-05-05 20:09 | 31.45017 | 121.96338 | 4541 ft | 248 kts | 269° |
| 2026-05-05 20:10 | 31.45015 | 121.94320 | 4390 ft | 248 kts | 269° |
| 2026-05-05 20:10 | 31.45013 | 121.92272 | 4237 ft | 248 kts | 268° |
| 2026-05-05 20:10 | 31.45011 | 121.90278 | 4087 ft | 248 kts | 268° |
| 2026-05-05 20:10 | 31.45009 | 121.88239 | 3936 ft | 247 kts | 268° |
| 2026-05-05 20:11 | 31.45005 | 121.86237 | 3800 ft | 243 kts | 268° |
| 2026-05-05 20:11 | 31.45003 | 121.84297 | 3616 ft | 234 kts | 267° |
| 2026-05-05 20:11 | 31.44865 | 121.82457 | 3491 ft | 222 kts | 256° |
| 2026-05-05 20:11 | 31.44512 | 121.80665 | 3386 ft | 229 kts | 255° |
| 2026-05-05 20:12 | 31.44146 | 121.78856 | 3246 ft | 227 kts | 255° |
| 2026-05-05 20:12 | 31.43797 | 121.77075 | 3103 ft | 222 kts | 255° |
| 2026-05-05 20:12 | 31.43461 | 121.75330 | 2964 ft | 217 kts | 254° |
| 2026-05-05 20:12 | 31.42991 | 121.73694 | 2819 ft | 210 kts | 233° |
| 2026-05-05 20:13 | 31.41868 | 121.72669 | 2731 ft | 207 kts | 196° |
| 2026-05-05 20:13 | 31.40445 | 121.72621 | 2615 ft | 206 kts | 170° |
| 2026-05-05 20:13 | 31.39066 | 121.72970 | 2485 ft | 199 kts | 167° |
| 2026-05-05 20:13 | 31.37759 | 121.73393 | 2351 ft | 190 kts | 165° |
| 2026-05-05 20:14 | 31.36532 | 121.73838 | 2224 ft | 179 kts | 164° |
| 2026-05-05 20:14 | 31.35377 | 121.74271 | 2139 ft | 171 kts | 164° |
| 2026-05-05 20:14 | 31.34253 | 121.74697 | 2071 ft | 169 kts | 164° |
| 2026-05-05 20:14 | 31.33132 | 121.75123 | 2020 ft | 171 kts | 164° |
| 2026-05-05 20:15 | 31.31993 | 121.75555 | 1982 ft | 172 kts | 163° |
| 2026-05-05 20:15 | 31.30894 | 121.75974 | 1966 ft | 157 kts | 163° |
| 2026-05-05 20:15 | 31.29911 | 121.76349 | 1948 ft | 140 kts | 164° |
| 2026-05-05 20:15 | 31.29007 | 121.76692 | 1952 ft | 135 kts | 164° |
| 2026-05-05 20:16 | 31.28112 | 121.77030 | 1966 ft | 135 kts | 164° |
| 2026-05-05 20:16 | 31.27226 | 121.77367 | 1992 ft | 134 kts | 164° |
| 2026-05-05 20:16 | 31.26338 | 121.77705 | 1969 ft | 134 kts | 164° |
| 2026-05-05 20:16 | 31.25454 | 121.78040 | 1965 ft | 133 kts | 164° |
| 2026-05-05 20:17 | 31.24550 | 121.78383 | 1799 ft | 138 kts | 164° |
| 2026-05-05 20:17 | 31.23651 | 121.78724 | 1612 ft | 134 kts | 164° |
| 2026-05-05 20:17 | 31.22782 | 121.79054 | 1436 ft | 130 kts | 164° |
| 2026-05-05 20:17 | 31.21908 | 121.79385 | 1276 ft | 133 kts | 163° |
| 2026-05-05 20:18 | 31.21024 | 121.79720 | 1095 ft | 133 kts | 163° |
| 2026-05-05 20:18 | 31.20147 | 121.80053 | 900 ft | 132 kts | 162° |
| 2026-05-05 20:18 | 31.19274 | 121.80389 | 749 ft | 134 kts | 161° |
| 2026-05-05 20:18 | 31.18372 | 121.80740 | 523 ft | 140 kts | 162° |
| 2026-05-05 20:19 | 31.17445 | 121.81065 | 371 ft | 140 kts | 162° |
| 2026-05-05 20:19 | 31.16511 | 121.81435 | 179 ft | 143 kts | 162° |
| 2026-05-05 20:19 | 31.15557 | 121.81795 | 47 ft | 144 kts | 162° |
| 2026-05-05 20:19 | 31.14687 | 121.82124 | 27 ft | 112 kts | 162° |
| 2026-05-05 20:20 | 31.14064 | 121.82358 | 29 ft | 84 kts | 162° |
| 2026-05-05 20:20 | 31.13587 | 121.82535 | 28 ft | 45 kts | 162° |
| 2026-05-05 20:20 | 31.13371 | 121.82618 | 28 ft | 15 kts | 161° |
| 2026-05-05 20:20 | 31.13292 | 121.82573 | 29 ft | 15 kts | 248° |
| 2026-05-05 20:21 | 31.13258 | 121.82456 | 28 ft | 16 kts | 248° |
| 2026-05-05 20:21 | 31.13188 | 121.82360 | 27 ft | 16 kts | 243° |
| 2026-05-05 20:21 | 31.13150 | 121.82242 | 27 ft | 16 kts | 251° |
| 2026-05-05 20:21 | 31.13116 | 121.82121 | 26 ft | 16 kts | 252° |
| 2026-05-05 20:22 | 31.13085 | 121.82000 | 27 ft | 16 kts | 252° |
| 2026-05-05 20:22 | 31.13099 | 121.81907 | 27 ft | 12 kts | 326° |
| 2026-05-05 20:22 | 31.13148 | 121.81837 | 27 ft | 12 kts | 275° |
| 2026-05-05 20:22 | 31.13130 | 121.81743 | 27 ft | 12 kts | 257° |
| 2026-05-05 20:23 | 31.13166 | 121.81664 | 27 ft | 12 kts | 335° |
| 2026-05-05 20:23 | 31.13247 | 121.81632 | 27 ft | 13 kts | 342° |
| 2026-05-05 20:23 | 31.13333 | 121.81600 | 27 ft | 13 kts | 342° |
| 2026-05-05 20:23 | 31.13421 | 121.81566 | 27 ft | 13 kts | 341° |
| 2026-05-05 20:24 | 31.13509 | 121.81532 | 27 ft | 13 kts | 342° |
| 2026-05-05 20:24 | 31.13597 | 121.81499 | 27 ft | 13 kts | 342° |
| 2026-05-05 20:24 | 31.13684 | 121.81467 | 27 ft | 13 kts | 342° |
| 2026-05-05 20:24 | 31.13739 | 121.81446 | 27 ft | 7 kts | 336° |
| 2026-05-05 20:25 | 31.13751 | 121.81426 | 27 ft | 2 kts | 283° |
| 2026-05-05 20:25 | 31.13742 | 121.81382 | 27 ft | 7 kts | 254° |
| 2026-05-05 20:25 | 31.13734 | 121.81351 | 27 ft | 2 kts | 253° |
| 2026-05-05 20:25 | 31.13733 | 121.81345 | 27 ft | 0 kts | 253° |